.
WxDataArchive / Data Records for 2006-07-29
2006-07-28 July 2006 2006-07-30

Data Records for Saturday, 29 July 2006

Time	Temp	Chill	HIndex	Humid	Dewpt	 Wind 	HiWind	WindDir	Rain 	Barom 
-----	----	-----	------	-----	-----	------	------	-------	-----	----- 
00:00	73.5	73.5	73.5	92	71.0	0	0	---	0.00	29.920 
00:05	73.3	73.3	73.3	91	70.5	0	0	---	0.00	29.920 
00:10	73.2	73.2	73.2	92	70.7	0	0	---	0.00	29.920 
00:15	73.2	73.2	73.2	92	70.7	0	0	---	0.00	29.926 
00:20	73.0	73.0	73.0	92	70.5	0	0	---	0.00	29.926 
00:25	73.0	73.0	73.0	92	70.5	0	0	---	0.00	29.926 
00:30	73.0	73.0	73.0	93	70.8	0	0	---	0.00	29.929 
00:35	73.0	73.0	73.0	93	70.8	0	0	---	0.00	29.929 
00:40	73.0	73.0	73.0	93	70.8	0	0	---	0.00	29.929 
00:45	72.8	72.8	72.8	93	70.7	0	0	---	0.00	29.934 
00:50	72.8	72.8	72.8	93	70.7	0	0	---	0.00	29.934 
00:55	72.8	72.8	72.8	93	70.7	0	0	---	0.00	29.934 
01:00	72.8	72.8	72.8	94	71.0	0	0	---	0.00	29.934 
01:05	72.7	72.7	72.7	94	70.9	0	0	---	0.00	29.934 
01:10	72.5	72.5	72.5	94	70.7	0	0	---	0.00	29.934 
01:15	72.5	72.5	72.5	94	70.7	0	0	---	0.00	29.935 
01:20	72.5	72.5	72.5	94	70.7	0	0	---	0.00	29.935 
01:25	72.3	72.3	72.3	94	70.5	0	0	---	0.00	29.935 
01:30	72.3	72.3	72.3	94	70.5	0	0	---	0.00	29.944 
01:35	72.1	72.1	72.1	94	70.3	0	0	---	0.00	29.944 
01:40	72.1	72.1	72.1	94	70.3	0	0	---	0.00	29.944 
01:45	72.0	72.0	72.0	94	70.2	0	0	---	0.00	29.947 
01:50	72.0	72.0	72.0	94	70.2	0	0	---	0.00	29.947 
01:55	72.0	72.0	72.0	94	70.2	0	0	---	0.00	29.947 
02:00	72.0	72.0	72.0	94	70.2	0	0	---	0.00	29.948 
02:05	72.0	72.0	72.0	94	70.2	0	0	---	0.00	29.948 
02:10	71.8	71.8	71.8	94	70.0	0	0	---	0.00	29.948 
02:15	71.8	71.8	71.8	94	70.0	0	0	---	0.00	29.947 
02:20	71.8	71.8	71.8	95	70.3	0	0	---	0.00	29.947 
02:25	71.8	71.8	71.8	95	70.3	0	0	---	0.00	29.947 
02:30	71.6	71.6	71.6	95	70.1	0	0	---	0.00	29.947 
02:35	71.5	71.5	71.5	95	70.0	0	0	---	0.00	29.947 
02:40	71.5	71.5	71.5	95	70.0	0	0	---	0.00	29.947 
02:45	71.3	71.3	71.3	95	69.8	0	0	---	0.00	29.946 
02:50	71.3	71.3	71.3	95	69.8	0	0	---	0.00	29.946 
02:55	71.1	71.1	71.1	95	69.6	0	0	---	0.00	29.946 
03:00	71.1	71.1	71.1	95	69.6	0	0	---	0.00	29.941 
03:05	71.1	71.1	71.1	95	69.6	0	0	---	0.00	29.941 
03:10	71.3	71.3	71.3	95	69.8	0	0	---	0.00	29.941 
03:15	71.3	71.3	71.3	95	69.8	0	0	---	0.00	29.941 
03:20	71.3	71.3	71.3	95	69.8	0	0	---	0.00	29.941 
03:25	71.5	71.5	71.5	95	70.0	0	0	---	0.00	29.941 
03:30	71.5	71.5	71.5	95	70.0	0	0	---	0.00	29.943 
03:35	71.3	71.3	71.3	95	69.8	0	0	---	0.00	29.943 
03:40	71.1	71.1	71.1	95	69.6	0	0	---	0.00	29.943 
03:45	70.9	70.9	70.9	95	69.4	0	0	---	0.00	29.946 
03:50	70.8	70.8	70.8	95	69.3	0	0	---	0.00	29.946 
03:55	70.8	70.8	70.8	95	69.3	0	0	---	0.00	29.946 
04:00	70.6	70.6	70.6	95	69.1	0	0	---	0.00	29.944 
04:05	70.4	70.4	70.4	95	68.9	0	0	---	0.00	29.944 
04:10	70.4	70.4	70.4	95	68.9	0	0	---	0.00	29.944 
04:15	70.3	70.3	70.3	95	68.8	0	0	---	0.00	29.941 
04:20	70.4	70.4	70.4	96	69.2	0	0	---	0.00	29.941 
04:25	70.3	70.3	70.3	96	69.1	0	0	---	0.00	29.941 
04:30	70.3	70.3	70.3	96	69.1	0	0	---	0.00	29.942 
04:35	70.3	70.3	70.3	96	69.1	0	0	---	0.00	29.942 
04:40	70.1	70.1	70.1	96	68.9	0	0	---	0.00	29.942 
04:45	70.1	70.1	70.1	96	68.9	0	0	---	0.00	29.941 
04:50	70.1	70.1	70.1	96	68.9	0	0	---	0.00	29.941 
04:55	70.1	70.1	70.1	96	68.9	0	0	---	0.00	29.941 
05:00	70.1	70.1	70.1	96	68.9	0	0	---	0.00	29.945 
05:05	70.1	70.1	70.1	96	68.9	0	0	---	0.00	29.945 
05:10	70.4	70.4	70.4	96	69.2	0	0	---	0.00	29.945 
05:15	70.6	70.6	70.6	96	69.4	0	0	---	0.00	29.945 
05:20	70.9	70.9	70.9	96	69.7	0	1	248	0.00	29.945 
05:25	70.9	70.9	70.9	96	69.7	0	0	---	0.00	29.945 
05:30	70.9	70.9	70.9	96	69.7	0	0	---	0.00	29.944 
05:35	70.9	70.9	70.9	96	69.7	0	0	---	0.00	29.944 
05:40	71.1	71.1	71.1	96	69.9	0	1	248	0.00	29.944 
05:45	71.3	71.3	71.3	96	70.1	0	1	248	0.00	29.945 
05:50	71.5	71.5	71.5	96	70.3	0	0	---	0.00	29.945 
05:55	71.6	71.6	71.6	96	70.4	0	0	---	0.00	29.945 
06:00	71.8	71.8	71.8	96	70.6	0	0	---	0.00	29.945 
06:05	71.8	71.8	71.8	97	70.9	0	0	---	0.00	29.945 
06:10	71.8	71.8	71.8	97	70.9	0	1	248	0.00	29.945 
06:15	71.8	71.8	71.8	96	70.6	0	1	248	0.00	29.937 
06:20	72.0	72.0	72.0	96	70.8	0	1	248	0.00	29.937 
06:25	72.0	72.0	72.0	96	70.8	0	1	248	0.00	29.937 
06:30	72.0	72.0	72.0	96	70.8	0	1	248	0.00	29.935 
06:35	72.0	72.0	72.0	96	70.8	0	1	248	0.00	29.935 
06:40	72.0	72.0	72.0	96	70.8	0	0	---	0.00	29.935 
06:45	71.8	71.8	71.8	96	70.6	0	0	---	0.00	29.930 
06:50	71.8	71.8	71.8	96	70.6	0	0	---	0.00	29.930 
06:55	71.8	71.8	71.8	96	70.6	0	0	---	0.00	29.930 
07:00	71.8	71.8	71.8	96	70.6	0	0	---	0.00	29.930 
07:05	71.8	71.8	71.8	96	70.6	0	1	248	0.00	29.930 
07:10	71.8	71.8	71.8	96	70.6	0	1	248	0.00	29.930 
07:15	71.8	71.8	71.8	96	70.6	0	1	248	0.00	29.931 
07:20	72.0	72.0	72.0	96	70.8	0	0	---	0.00	29.931 
07:25	72.1	72.1	72.1	96	70.9	0	1	248	0.00	29.931 
07:30	72.1	72.1	72.1	96	70.9	0	2	248	0.00	29.929 
07:35	72.3	72.3	72.3	96	71.1	0	1	248	0.00	29.929 
07:40	72.5	72.5	72.5	96	71.3	0	2	248	0.00	29.929 
07:45	72.8	72.8	72.8	96	71.6	1	3	248	0.00	29.930 
07:50	73.0	73.0	73.0	95	71.5	0	1	248	0.00	29.930 
07:55	73.3	73.3	73.3	94	71.5	0	1	248	0.00	29.930 
08:00	73.5	73.5	73.5	93	71.3	0	2	248	0.00	29.929 
08:05	73.9	73.9	73.9	92	71.4	1	2	248	0.00	29.929 
08:10	74.2	74.2	74.2	90	71.1	1	2	248	0.00	29.929 
08:15	74.6	74.6	74.6	89	71.1	1	2	248	0.00	29.929 
08:20	74.9	74.9	74.9	88	71.1	1	3	248	0.00	29.929 
08:25	75.3	75.3	75.0	88	71.5	1	3	248	0.00	29.929 
08:30	75.6	75.6	75.6	87	71.4	1	2	248	0.00	29.931 
08:35	76.0	76.0	76.5	86	71.5	1	3	248	0.00	29.931 
08:40	76.5	76.5	77.4	86	72.0	1	3	248	0.00	29.931 
08:45	76.7	76.7	77.8	85	71.8	1	3	248	0.00	29.928 
08:50	77.0	77.0	78.4	85	72.1	1	3	248	0.00	29.928 
08:55	77.4	77.4	79.2	84	72.2	1	3	248	0.00	29.928 
09:00	77.7	77.7	79.8	83	72.1	1	3	248	0.00	29.927 
09:05	78.1	78.1	80.5	82	72.1	1	3	248	0.00	29.927 
09:10	78.3	78.3	80.9	82	72.3	1	3	248	0.00	29.927 
09:15	78.8	78.8	82.0	83	73.2	1	2	248	0.00	29.935 
09:20	79.0	79.0	82.3	81	72.7	1	2	248	0.00	29.935 
09:25	79.4	79.4	83.0	80	72.7	1	3	248	0.00	29.935 
09:30	79.4	79.4	83.0	80	72.7	1	2	292	0.00	29.943 
09:35	79.8	79.8	83.9	81	73.4	1	3	248	0.00	29.943 
09:40	80.1	80.1	84.3	79	73.0	2	5	248	0.00	29.943 
09:45	80.3	80.3	84.7	79	73.2	1	3	248	0.00	29.943 
09:50	80.5	80.5	85.0	78	73.0	1	3	292	0.00	29.943 
09:55	80.5	80.5	85.0	78	73.0	1	2	315	0.00	29.943 
10:00	81.1	81.1	86.3	78	73.6	1	4	270	0.00	29.946 
10:05	81.2	81.2	86.3	77	73.3	1	2	270	0.00	29.946 
10:10	81.4	81.4	86.7	77	73.5	2	3	270	0.00	29.946 
10:15	81.6	81.6	87.2	77	73.7	1	3	270	0.00	29.950 
10:20	81.4	81.4	86.9	78	73.9	2	4	270	0.00	29.950 
10:25	81.1	81.1	86.3	78	73.6	2	4	270	0.00	29.950 
10:30	81.1	81.1	86.1	77	73.2	2	5	270	0.00	29.953 
10:35	81.2	81.2	86.3	77	73.3	2	3	292	0.00	29.953 
10:40	81.2	81.2	86.5	78	73.7	2	3	315	0.00	29.953 
10:45	81.2	81.2	86.3	77	73.3	2	3	315	0.00	29.959 
10:50	81.2	81.2	86.3	77	73.3	2	4	248	0.00	29.959 
10:55	81.6	81.6	87.2	77	73.7	2	3	248	0.00	29.959 
11:00	82.0	82.0	87.8	76	73.7	1	3	270	0.00	29.956 
11:05	82.6	82.6	89.2	76	74.2	1	3	270	0.00	29.956 
11:10	83.4	83.4	90.4	74	74.2	2	5	270	0.00	29.956 
11:15	83.6	83.6	91.5	76	75.2	1	4	248	0.00	29.956 
11:20	84.0	84.0	91.5	73	74.4	1	2	270	0.00	29.956 
11:25	84.3	84.3	91.8	72	74.3	0	2	248	0.00	29.956 
11:30	84.7	84.7	93.1	73	75.1	1	3	315	0.00	29.958 
11:35	84.9	84.9	92.8	71	74.4	1	3	315	0.00	29.958 
11:40	85.3	85.3	92.6	68	73.5	2	3	270	0.00	29.958 
11:45	85.3	85.3	93.4	70	74.4	1	3	315	0.00	29.952 
11:50	85.5	85.5	93.9	70	74.6	1	2	315	0.00	29.952 
11:55	85.9	85.9	94.4	69	74.5	2	5	248	0.00	29.952 
12:00	86.3	86.3	94.1	66	73.6	1	4	270	0.00	29.948 
12:05	86.3	86.3	95.4	69	74.9	2	4	270	0.00	29.948 
12:10	87.0	87.0	95.2	65	73.8	2	5	248	0.00	29.948 
12:15	87.2	87.2	94.8	63	73.0	1	4	248	0.00	29.954 
12:20	87.4	87.4	94.3	61	72.3	1	3	270	0.00	29.954 
12:25	87.4	87.4	96.1	65	74.2	2	4	292	0.00	29.954 
12:30	87.2	87.2	95.2	64	73.5	1	3	292	0.00	29.957 
12:35	87.4	87.4	95.2	63	73.2	1	3	292	0.00	29.957 
12:40	87.6	87.6	95.2	62	72.9	2	4	248	0.00	29.957 
12:45	87.8	87.8	96.1	63	73.6	2	4	248	0.00	29.954 
12:50	87.4	87.4	94.8	62	72.7	1	3	248	0.00	29.954 
12:55	88.0	88.0	96.1	62	73.3	2	3	270	0.00	29.954 
13:00	88.2	88.2	97.0	63	74.0	2	4	270	0.00	29.954 
13:05	88.0	88.0	94.7	59	71.8	1	3	292	0.00	29.954 
13:10	88.0	88.0	94.7	59	71.8	2	4	292	0.00	29.954 
13:15	88.4	88.4	96.5	61	73.2	2	5	248	0.00	29.939 
13:20	88.8	88.8	96.4	59	72.6	1	4	248	0.00	29.939 
13:25	88.6	88.6	95.5	58	71.9	1	4	248	0.00	29.939 
13:30	88.6	88.6	97.0	61	73.4	2	4	248	0.00	29.938 
13:35	89.0	89.0	99.5	64	75.2	2	3	248	0.00	29.938 
13:40	89.3	89.3	96.0	56	71.5	1	2	248	0.00	29.938 
13:45	89.5	89.5	97.4	58	72.7	1	3	292	0.00	29.937 
13:50	89.9	89.9	98.9	59	73.6	1	3	270	0.00	29.937 
13:55	90.1	90.1	97.7	56	72.2	1	3	248	0.00	29.937 
14:00	90.1	90.1	96.7	54	71.2	2	4	248	0.00	29.927 
14:05	90.1	90.1	97.7	56	72.2	2	5	270	0.00	29.927 
14:10	90.3	90.3	98.7	57	73.0	2	4	270	0.00	29.927 
14:15	89.9	89.9	97.3	56	72.1	1	3	270	0.00	29.936 
14:20	89.3	89.3	96.0	56	71.5	2	4	248	0.00	29.936 
14:25	89.7	89.7	95.9	54	70.8	2	4	270	0.00	29.936 
14:30	89.5	89.5	95.9	55	71.2	1	5	315	0.00	29.940 
14:35	89.5	89.5	96.4	56	71.7	1	2	315	0.00	29.940 
14:40	89.9	89.9	97.3	56	72.1	1	4	315	0.00	29.940 
14:45	89.9	89.9	97.3	56	72.1	2	3	270	0.00	29.943 
14:50	89.7	89.7	98.4	59	73.4	2	4	315	0.00	29.943 
14:55	89.9	89.9	98.3	58	73.1	2	4	270	0.00	29.943 
15:00	89.9	89.9	98.3	58	73.1	1	3	270	0.00	29.943 
15:05	90.1	90.1	96.7	54	71.2	1	3	315	0.00	29.943 
15:10	90.3	90.3	98.2	56	72.4	1	5	292	0.00	29.943 
15:15	90.1	90.1	95.7	52	70.1	2	5	270	0.00	29.928 
15:20	89.9	89.9	96.3	54	71.0	2	4	315	0.00	29.928 
15:25	89.9	89.9	96.8	55	71.5	1	4	292	0.00	29.928 
15:30	89.7	89.7	96.4	55	71.3	1	3	292	0.00	29.917 
15:35	89.7	89.7	96.4	55	71.3	2	5	270	0.00	29.917 
15:40	90.1	90.1	97.2	55	71.7	2	4	270	0.00	29.917 
15:45	89.5	89.5	95.5	54	70.6	2	4	270	0.00	29.915 
15:50	88.8	88.8	95.4	57	71.6	1	4	315	0.00	29.915 
15:55	89.7	89.7	97.4	57	72.4	1	3	270	0.00	29.915 
16:00	90.1	90.1	96.7	54	71.2	2	4	270	0.00	29.912 
16:05	89.7	89.7	95.4	53	70.3	1	3	338	0.00	29.912 
16:10	89.7	89.7	95.9	54	70.8	1	5	270	0.00	29.912 
16:15	89.5	89.5	96.4	56	71.7	1	3	270	0.00	29.903 
16:20	89.9	89.9	97.8	57	72.6	1	3	248	0.00	29.903 
16:25	90.1	90.1	95.7	52	70.1	2	4	270	0.00	29.903 
16:30	90.3	90.3	97.1	54	71.4	2	4	315	0.00	29.898 
16:35	90.1	90.1	95.7	52	70.1	2	6	270	0.00	29.898 
16:40	90.1	90.1	96.2	53	70.6	1	3	315	0.00	29.898 
16:45	89.9	89.9	95.8	53	70.4	2	3	270	0.00	29.898 
16:50	90.1	90.1	96.7	54	71.2	1	4	248	0.00	29.898 
16:55	90.3	90.3	96.1	52	70.2	1	4	270	0.00	29.898 
17:00	90.3	90.3	96.1	52	70.2	2	6	270	0.00	29.899 
17:05	90.1	90.1	96.7	54	71.2	2	4	270	0.00	29.899 
17:10	90.3	90.3	97.1	54	71.4	1	5	270	0.00	29.899 
17:15	90.7	90.7	96.4	51	70.0	2	3	270	0.00	29.897 
17:20	90.7	90.7	96.4	51	70.0	2	4	270	0.00	29.897 
17:25	90.7	90.7	96.9	52	70.6	2	6	270	0.00	29.897 
17:30	90.5	90.5	95.1	49	68.7	3	5	248	0.00	29.896 
17:35	90.3	90.3	95.2	50	69.1	1	3	292	0.00	29.896 
17:40	90.1	90.1	95.2	51	69.5	2	5	270	0.00	29.896 
17:45	90.1	90.1	95.7	52	70.1	1	3	248	0.00	29.895 
17:50	90.3	90.3	97.1	54	71.4	2	3	248	0.00	29.895 
17:55	90.3	90.3	95.6	51	69.7	3	6	248	0.00	29.895 
18:00	90.1	90.1	95.7	52	70.1	2	4	270	0.00	29.893 
18:05	89.9	89.9	95.3	52	69.9	2	5	270	0.00	29.893 
18:10	89.9	89.9	94.4	50	68.7	2	4	270	0.00	29.893 
18:15	89.7	89.7	94.5	51	69.1	1	4	270	0.00	29.893 
18:20	89.5	89.5	95.5	54	70.6	1	4	248	0.00	29.893 
18:25	89.5	89.5	95.5	54	70.6	1	4	270	0.00	29.893 
18:30	89.3	89.3	94.6	53	69.9	2	6	270	0.00	29.888 
18:35	89.0	89.0	94.0	53	69.6	2	3	270	0.00	29.888 
18:40	88.8	88.8	94.1	54	70.0	1	3	248	0.00	29.888 
18:45	88.8	88.8	94.5	55	70.5	1	3	248	0.00	29.885 
18:50	88.6	88.6	94.1	55	70.3	1	4	270	0.00	29.885 
18:55	88.6	88.6	95.0	57	71.4	1	4	270	0.00	29.885 
19:00	88.6	88.6	95.0	57	71.4	1	2	315	0.00	29.883 
19:05	88.4	88.4	94.6	57	71.2	1	3	270	0.00	29.883 
19:10	88.4	88.4	94.2	56	70.7	1	3	292	0.00	29.883 
19:15	88.4	88.4	94.6	57	71.2	1	4	248	0.00	29.879 
19:20	88.0	88.0	94.3	58	71.3	2	3	248	0.00	29.879 
19:25	87.8	87.8	94.3	59	71.7	1	3	248	0.00	29.879 
19:30	87.6	87.6	93.9	59	71.5	1	2	248	0.00	29.876 
19:35	87.6	87.6	94.3	60	72.0	1	3	248	0.00	29.876 
19:40	87.4	87.4	93.5	59	71.3	2	4	248	0.00	29.876 
19:45	87.2	87.2	93.1	59	71.1	1	3	248	0.00	29.870 
19:50	87.0	87.0	93.5	61	71.9	1	2	248	0.00	29.870 
19:55	87.0	87.0	93.5	61	71.9	1	3	248	0.00	29.870 
20:00	86.7	86.7	92.9	61	71.6	1	3	270	0.00	29.873 
20:05	86.5	86.5	92.8	62	71.9	1	3	248	0.00	29.873 
20:10	86.3	86.3	92.8	63	72.2	1	2	248	0.00	29.873 
20:15	86.1	86.1	92.4	63	72.0	1	3	248	0.00	29.865 
20:20	85.9	85.9	92.4	64	72.3	0	2	248	0.00	29.865 
20:25	85.7	85.7	92.0	64	72.1	0	2	248	0.00	29.865 
20:30	85.5	85.5	91.6	64	71.9	0	1	248	0.00	29.866 
20:35	85.3	85.3	91.5	65	72.2	0	2	248	0.00	29.866 
20:40	85.1	85.1	91.1	65	72.0	0	2	248	0.00	29.866 
20:45	84.9	84.9	91.0	66	72.2	0	1	248	0.00	29.869 
20:50	84.7	84.7	91.0	67	72.5	0	1	248	0.00	29.869 
20:55	84.5	84.5	90.5	67	72.3	0	0	---	0.00	29.869 
21:00	84.1	84.1	90.0	68	72.4	0	1	248	0.00	29.864 
21:05	83.8	83.8	89.7	69	72.5	0	1	248	0.00	29.864 
21:10	83.4	83.4	89.2	70	72.6	0	0	---	0.00	29.864 
21:15	83.0	83.0	88.7	71	72.6	0	0	---	0.00	29.875 
21:20	82.6	82.6	88.1	72	72.6	0	0	---	0.00	29.875 
21:25	82.4	82.4	87.7	72	72.4	0	1	248	0.00	29.875 
21:30	82.0	82.0	87.1	73	72.5	0	0	---	0.00	29.877 
21:35	81.8	81.8	86.7	73	72.3	0	0	---	0.00	29.877 
21:40	81.6	81.6	86.5	74	72.5	0	0	---	0.00	29.877 
21:45	81.4	81.4	86.3	75	72.7	0	0	---	0.00	29.878 
21:50	81.2	81.2	85.9	75	72.5	0	0	---	0.00	29.878 
21:55	81.1	81.1	85.7	75	72.4	0	0	---	0.00	29.878 
22:00	80.9	80.9	85.5	76	72.6	0	0	---	0.00	29.879 
22:05	80.7	80.7	85.1	76	72.4	0	0	---	0.00	29.879 
22:10	80.7	80.7	85.1	76	72.4	0	1	248	0.00	29.879 
22:15	80.5	80.5	84.8	77	72.6	0	0	---	0.00	29.888 
22:20	80.3	80.3	84.4	77	72.4	0	0	---	0.00	29.888 
22:25	80.1	80.1	84.0	77	72.2	0	0	---	0.00	29.888 
22:30	80.3	80.3	84.4	77	72.4	0	0	---	0.00	29.890 
22:35	80.3	80.3	84.4	77	72.4	0	0	---	0.00	29.890 
22:40	80.1	80.1	84.2	78	72.6	0	0	---	0.00	29.890 
22:45	79.9	79.9	83.8	78	72.4	0	1	248	0.00	29.891 
22:50	79.9	79.9	83.8	78	72.4	0	1	248	0.00	29.891 
22:55	80.1	80.1	84.2	78	72.6	0	1	248	0.00	29.891 
23:00	80.1	80.1	84.2	78	72.6	0	1	248	0.00	29.890 
23:05	80.1	80.1	84.3	79	73.0	0	2	248	0.00	29.890 
23:10	80.3	80.3	84.7	79	73.2	1	3	248	0.00	29.890 
23:15	80.5	80.5	85.0	78	73.0	1	2	248	0.00	29.890 
23:20	80.5	80.5	85.1	79	73.4	0	2	248	0.00	29.890 
23:25	80.5	80.5	85.1	79	73.4	0	2	248	0.00	29.890 
23:30	80.5	80.5	85.1	79	73.4	1	2	248	0.00	29.891 
23:35	80.7	80.7	85.6	79	73.6	1	2	248	0.00	29.891 
23:40	80.7	80.7	85.6	79	73.6	0	2	248	0.00	29.891 
23:45	80.5	80.5	85.3	80	73.7	0	2	248	0.00	29.891 
23:50	80.5	80.5	85.3	80	73.7	1	3	248	0.00	29.891 
23:55	80.3	80.3	84.9	80	73.5	0	2	248	0.00	29.891 

CoCoRaHS
IN-AL-39
A2 Web Hosting
Creative Commons License
GoDaddy
Look for:

loaded 2017-12-10 21:28:51 • last modified 2010-11-18 10:43:29
Privacy PolicyDisclaimer
• wx.awcolley.com is powered by PmWiki v.2002016 •
• all content (unless otherwise noted) © 2017 A W Colley